石垣 の空港の天気 - METARとTAF

石垣島 ( ROIG / ISG ) - 沖縄県石垣市石垣島
飛行場実況気象(Metar)
観測時間12/04 13:00 JST (12/04 04:00 UTC)
風向・風速北北東 12m/s
視程7000m
天気現象弱いしゅう雨
少しの雲 雲底高度 180m
全天の4割程度の雲 雲底高度 300m
全天の8割程度の雲 雲底高度 490m
気温19℃
湿度100%
気圧1016hPa
METARROIG 040400Z 02023KT 7000 R04/2000U -SHRA FEW006 SCT010 BKN016 19/19 Q1016
過去の天気等 Google飛行場航空写真 Wunderground天気予報

過去48時間のMETAR

飛行場予報(TAF)
発表時間: 12/04 11:18 JST (12/04 02:18 UTC)
予報対象時間: 4日11時 JST ~ 5日15時 JST
風向・風速北北東 13m/s
視程10km以上
全天の4割程度の雲 雲底高度 240m
全天の8割程度の雲 雲底高度 460m
4日11時 JST ~ 4日17時 JST に一時的に
風向・風速北北東 14m/s 瞬間風速 20m/s
視程4000m
天気現象しゅう雨
4日17時 JST ~ 5日9時 JST に一時的に
風向・風速北北東 13m/s 瞬間風速 20m/s
TAF AMD ROIG 040218Z 0402/0506 03025KT 9999 SCT008 BKN015
TEMPO 0402/0408 03027G39KT 4000 SHRA
TEMPO 0408/0500 03026G38KT
日本の空港のMETAR・TAFへのリンク

RJTT 東京国際空港
RJAA 新東京国際空港
RJBB 関西国際空港
RJOO 大阪空港
RJGG 中部国際空港
RJCC 新千歳空港
RJFF 福岡空港
ROAH 那覇空港


RJEC 旭川空港
RJCH 函館空港
RJCK 釧路空港
RJCM 女満別空港
RJCB 帯広空港
RJSA 青森空港
RJSS 仙台空港
RJSK 秋田空港
RJSF 福島空港
RJAH 茨城空港
RJSN 新潟空港
RJNT 富山空港
RJNK 小松飛行場
RJNS 静岡空港
RJOH 美保飛行場
RJOC 出雲空港
RJOB 岡山空港
RJOA 広島空港
RJOI 岩国飛行場
RJOT 高松空港
RJOM 松山空港
RJOK 高知空港
RJFR 北九州空港
RJFT 熊本空港
RJFU 長崎空港
RJFS 佐賀空港
RJFO 大分空港
RJFM 宮崎空港
RJFK 鹿児島空港
ROIG 石垣島空港
RJTY 横田飛行場
ROTM 普天間飛行場
RODN 嘉手納飛行場